Time;durP1;ratioP1;P1;durP2;ratioP2;P2;SDS_P1;SDS_P2;PMS_P1;PMS_P2;Temp;Humidity;BMP_temperature;BMP_pressure;BME280_temperature;BME280_humidity;BME280_pressure;Samples;Min_cycle;Max_cycle;Signal;HPM_P1;HPM_P2
2022/05/05 00:01:32;;;;;;;5.95;3.00;;;16.10;90.70;;;;;;4148419;28;20485;-64
2022/05/05 00:03:32;;;;;;;5.43;2.42;;;16.10;90.80;;;;;;4155036;28;20030;-63
2022/05/05 00:05:33;;;;;;;3.92;2.60;;;16.10;90.70;;;;;;4154122;28;20546;-63
2022/05/05 00:07:33;;;;;;;4.53;3.10;;;16.10;90.90;;;;;;4151940;28;20068;-62
2022/05/05 00:09:34;;;;;;;6.25;2.58;;;16.10;90.80;;;;;;4158399;28;20064;-63
2022/05/05 00:16:13;;;;;;;5.10;2.75;;;16.00;91.30;;;;;;4153178;28;20112;-63
2022/05/05 00:18:14;;;;;;;6.05;2.42;;;16.00;91.10;;;;;;4161252;28;20129;-63
2022/05/05 00:20:15;;;;;;;4.57;2.40;;;16.00;91.10;;;;;;4154052;28;20042;-63
2022/05/05 00:22:16;;;;;;;5.07;2.95;;;16.00;91.10;;;;;;4153963;28;20475;-62
2022/05/05 00:24:16;;;;;;;8.15;2.83;;;16.00;91.10;;;;;;4155103;28;20041;-62
2022/05/05 00:26:17;;;;;;;4.18;2.67;;;16.00;91.00;;;;;;4156308;28;20079;-63
2022/05/05 00:28:18;;;;;;;4.70;2.40;;;16.00;91.30;;;;;;4159731;28;20108;-63
2022/05/05 00:30:19;;;;;;;8.13;2.97;;;16.00;91.30;;;;;;4157003;28;20038;-62
2022/05/05 00:32:19;;;;;;;6.15;2.67;;;16.00;91.40;;;;;;4159015;28;20034;-63
2022/05/05 00:34:20;;;;;;;6.32;3.03;;;16.00;91.30;;;;;;4151591;28;20033;-63
2022/05/05 00:36:20;;;;;;;4.55;2.65;;;16.00;91.50;;;;;;4152173;28;20099;-63
2022/05/05 00:38:21;;;;;;;12.70;3.10;;;16.00;91.40;;;;;;4157553;28;20088;-61
2022/05/05 00:40:22;;;;;;;8.18;3.60;;;16.00;91.70;;;;;;4153653;28;20045;-63
2022/05/05 00:42:22;;;;;;;4.78;2.75;;;16.00;91.60;;;;;;4157684;28;20384;-62
2022/05/05 00:44:23;;;;;;;5.38;2.90;;;16.00;91.50;;;;;;4150331;28;20040;-63
2022/05/05 00:46:24;;;;;;;4.97;2.90;;;15.90;91.30;;;;;;4150116;28;20081;-63
2022/05/05 00:48:28;;;;;;;6.28;3.22;;;15.90;91.60;;;;;;4158173;28;20042;-62
2022/05/05 00:50:31;;;;;;;4.32;2.53;;;15.90;92.00;;;;;;4155301;28;20084;-64
2022/05/05 00:52:31;;;;;;;;;;;15.90;91.80;;;;;;4152628;28;20512;-63
2022/05/05 00:54:32;;;;;;;5.30;2.63;;;15.80;91.90;;;;;;4159856;28;19910;-62
2022/05/05 00:56:33;;;;;;;5.93;2.90;;;15.80;92.10;;;;;;4153725;28;20472;-61
2022/05/05 00:58:34;;;;;;;7.65;3.10;;;15.80;92.50;;;;;;4152495;28;20485;-62
2022/05/05 01:00:35;;;;;;;6.00;2.95;;;15.80;92.30;;;;;;4153302;28;20064;-62
2022/05/05 01:02:36;;;;;;;5.60;2.97;;;15.80;92.20;;;;;;4157943;28;20038;-63
2022/05/05 01:04:37;;;;;;;4.93;2.90;;;15.80;92.10;;;;;;4156239;28;20030;-63
2022/05/05 01:06:38;;;;;;;7.70;3.45;;;15.70;92.10;;;;;;4157707;28;20439;-63
2022/05/05 01:08:39;;;;;;;6.50;3.17;;;15.70;92.10;;;;;;4155002;28;20026;-62
2022/05/05 01:10:39;;;;;;;4.22;2.88;;;15.70;92.30;;;;;;4152954;28;20095;-63
2022/05/05 01:12:40;;;;;;;7.80;2.95;;;15.70;92.30;;;;;;4155176;28;20473;-63
2022/05/05 01:14:41;;;;;;;8.50;3.50;;;15.70;92.00;;;;;;4158939;28;20030;-62
2022/05/05 01:16:42;;;;;;;5.18;2.95;;;15.70;91.90;;;;;;4155384;28;20044;-63
2022/05/05 01:18:43;;;;;;;5.28;2.80;;;15.70;91.80;;;;;;4152794;28;20037;-63
2022/05/05 01:20:49;;;;;;;4.85;2.80;;;15.70;92.20;;;;;;4154549;28;20461;-63
2022/05/05 01:22:50;;;;;;;6.72;3.28;;;15.60;92.10;;;;;;4156234;28;20037;-63
2022/05/05 01:29:30;;;;;;;5.53;2.88;;;15.60;92.10;;;;;;4155410;28;20037;-64
2022/05/05 01:31:30;;;;;;;9.82;3.58;;;15.50;92.40;;;;;;4154121;28;20037;-62
2022/05/05 01:33:31;;;;;;;6.15;2.97;;;15.60;92.20;;;;;;4153496;28;20038;-63
2022/05/05 01:35:32;;;;;;;11.55;3.95;;;15.50;92.40;;;;;;4159094;28;20091;-62
2022/05/05 01:37:32;;;;;;;7.10;3.30;;;15.50;92.20;;;;;;4152562;28;20041;-63
2022/05/05 01:39:33;;;;;;;9.57;3.50;;;15.40;92.20;;;;;;4159210;28;20045;-63
2022/05/05 01:41:36;;;;;;;6.57;3.95;;;15.40;92.30;;;;;;4155810;28;20037;-62
2022/05/05 01:43:37;;;;;;;6.40;3.58;;;15.40;92.80;;;;;;4156728;28;20096;-63
2022/05/05 01:45:39;;;;;;;8.17;3.60;;;15.40;92.60;;;;;;4151926;28;20041;-63
2022/05/05 01:47:39;;;;;;;7.15;3.25;;;15.40;92.60;;;;;;4156486;28;20504;-63
2022/05/05 01:49:40;;;;;;;7.50;4.10;;;15.40;92.50;;;;;;4154444;28;20109;-62
2022/05/05 01:51:40;;;;;;;6.53;3.70;;;15.40;92.80;;;;;;4154692;28;20127;-63
2022/05/05 01:53:41;;;;;;;7.07;4.00;;;15.40;92.60;;;;;;4158325;28;20527;-62
2022/05/05 01:55:42;;;;;;;8.68;3.92;;;15.40;92.70;;;;;;4154578;28;20513;-63
2022/05/05 01:57:42;;;;;;;8.07;3.55;;;15.40;93.00;;;;;;4157935;28;20068;-62
2022/05/05 01:59:43;;;;;;;4.85;3.53;;;15.40;93.00;;;;;;4156803;28;20503;-63
2022/05/05 02:01:44;;;;;;;4.93;3.45;;;15.40;93.20;;;;;;4150562;28;20038;-63
2022/05/05 02:03:44;;;;;;;7.32;3.95;;;15.40;93.20;;;;;;4152685;28;20038;-63
2022/05/05 02:05:47;;;;;;;5.88;3.58;;;15.30;93.20;;;;;;4158251;28;20060;-62
2022/05/05 02:07:48;;;;;;;;;;;15.40;93.20;;;;;;4155665;28;20538;-63
2022/05/05 02:09:48;;;;;;;8.30;3.90;;;15.40;93.20;;;;;;4155187;28;19917;-63
2022/05/05 02:11:49;;;;;;;6.80;3.67;;;15.40;93.40;;;;;;4152108;28;20424;-63
2022/05/05 02:13:50;;;;;;;5.80;3.80;;;15.40;93.50;;;;;;4149666;28;20549;-62
2022/05/05 02:15:51;;;;;;;5.35;3.60;;;15.30;93.30;;;;;;4157395;28;20056;-62
2022/05/05 02:17:51;;;;;;;7.07;3.67;;;15.40;93.20;;;;;;4157850;28;20040;-62
2022/05/05 02:19:52;;;;;;;5.15;3.53;;;15.40;93.40;;;;;;4151987;28;20465;-62
2022/05/05 02:21:52;;;;;;;7.55;3.92;;;15.40;93.30;;;;;;4156896;28;20403;-63
2022/05/05 02:23:53;;;;;;;13.93;4.20;;;15.40;93.40;;;;;;4156452;28;20497;-63
2022/05/05 02:25:53;;;;;;;8.20;4.15;;;15.40;93.40;;;;;;4153191;28;20464;-63
2022/05/05 02:27:54;;;;;;;6.70;4.22;;;15.40;93.40;;;;;;4154477;28;20041;-62
2022/05/05 02:29:55;;;;;;;6.30;4.05;;;15.40;93.40;;;;;;4155116;28;20044;-63
2022/05/05 02:31:55;;;;;;;6.63;3.38;;;15.40;93.40;;;;;;4157078;28;20503;-62
2022/05/05 02:33:56;;;;;;;6.90;4.15;;;15.30;93.50;;;;;;4157303;28;20159;-63
2022/05/05 02:40:35;;;;;;;7.38;3.60;;;15.30;94.10;;;;;;4151861;28;20042;-63
2022/05/05 02:42:35;;;;;;;7.32;4.20;;;15.20;94.00;;;;;;4156373;28;20052;-63
2022/05/05 02:44:36;;;;;;;7.32;4.32;;;15.20;93.90;;;;;;4153908;28;20564;-63
2022/05/05 02:46:36;;;;;;;7.45;4.25;;;15.20;93.70;;;;;;4149492;28;20503;-62
2022/05/05 02:48:37;;;;;;;7.80;4.35;;;15.20;93.70;;;;;;4149858;28;20055;-63
2022/05/05 02:50:38;;;;;;;6.47;4.15;;;15.20;93.90;;;;;;4156660;28;20063;-63
2022/05/05 02:52:38;;;;;;;7.07;4.03;;;15.20;93.90;;;;;;4153206;28;20116;-63
2022/05/05 02:54:50;;;;;;;5.72;3.70;;;15.20;93.70;;;;;;4157020;28;20393;-62
2022/05/05 02:56:51;;;;;;;8.00;4.15;;;15.20;93.70;;;;;;4148767;28;20033;-62
2022/05/05 02:58:53;;;;;;;6.45;4.13;;;15.20;93.40;;;;;;4153582;28;20459;-62
2022/05/05 03:00:54;;;;;;;8.15;4.00;;;15.20;93.60;;;;;;4153605;28;20041;-62
2022/05/05 03:02:56;;;;;;;10.02;4.47;;;15.20;93.60;;;;;;4153945;28;20034;-62
2022/05/05 03:04:56;;;;;;;5.33;3.83;;;15.20;93.60;;;;;;4150968;28;20405;-63
2022/05/05 03:06:57;;;;;;;8.57;4.22;;;15.20;94.00;;;;;;4150897;28;20029;-65
2022/05/05 03:08:57;;;;;;;7.97;3.95;;;15.10;93.80;;;;;;4158202;28;20088;-64
2022/05/05 03:10:58;;;;;;;7.57;4.97;;;15.20;93.80;;;;;;4154884;28;20033;-63
2022/05/05 03:12:58;;;;;;;9.65;4.45;;;15.10;93.90;;;;;;4157170;28;20090;-63
2022/05/05 03:14:59;;;;;;;6.53;4.60;;;15.10;93.80;;;;;;4153927;28;20034;-61
2022/05/05 03:17:00;;;;;;;9.43;5.00;;;15.10;93.70;;;;;;4153606;28;20137;-64
2022/05/05 03:19:00;;;;;;;7.70;4.38;;;15.00;93.70;;;;;;4150981;28;20045;-63
2022/05/05 03:21:01;;;;;;;8.77;4.05;;;15.00;93.60;;;;;;4154477;28;20022;-63
2022/05/05 03:23:02;;;;;;;7.22;4.60;;;15.00;93.50;;;;;;4153996;28;20037;-63
2022/05/05 03:25:03;;;;;;;8.40;4.38;;;15.00;93.80;;;;;;4155592;28;20400;-63
2022/05/05 03:27:04;;;;;;;8.48;4.32;;;15.00;93.80;;;;;;4154525;28;20025;-63
2022/05/05 03:29:05;;;;;;;9.25;4.82;;;15.00;94.10;;;;;;4154843;28;20064;-62
2022/05/05 03:31:06;;;;;;;7.50;4.50;;;14.90;94.10;;;;;;4155615;28;20037;-63
2022/05/05 03:33:07;;;;;;;6.70;4.05;;;14.90;94.40;;;;;;4150839;28;20044;-62
2022/05/05 03:35:09;;;;;;;8.98;4.50;;;14.90;94.70;;;;;;4158814;28;20461;-63
2022/05/05 03:37:10;;;;;;;7.67;4.80;;;14.90;94.60;;;;;;4158958;28;20037;-61
2022/05/05 03:39:11;;;;;;;7.80;4.25;;;14.90;94.50;;;;;;4124051;28;1057565;-63
2022/05/05 03:41:11;;;;;;;10.55;4.18;;;14.90;94.70;;;;;;4160695;28;20041;-62
2022/05/05 03:43:12;;;;;;;8.40;5.00;;;14.80;94.50;;;;;;4162881;28;20055;-63
2022/05/05 03:45:12;;;;;;;8.98;4.35;;;14.80;94.30;;;;;;4158318;28;20104;-64
2022/05/05 03:47:13;;;;;;;5.22;4.07;;;14.90;94.40;;;;;;4158770;28;20047;-62
2022/05/05 03:49:13;;;;;;;7.72;4.43;;;14.80;94.40;;;;;;4159433;28;20061;-63
2022/05/05 03:51:14;;;;;;;7.03;4.13;;;14.80;94.30;;;;;;4160060;28;20056;-62
2022/05/05 03:53:15;;;;;;;7.47;4.45;;;14.80;94.20;;;;;;4156970;28;20061;-63
2022/05/05 03:55:15;;;;;;;6.80;4.68;;;14.80;94.40;;;;;;4157249;28;20531;-62
2022/05/05 03:57:16;;;;;;;7.20;4.63;;;14.80;94.30;;;;;;4156258;28;20503;-62
2022/05/05 03:59:16;;;;;;;8.20;4.60;;;14.70;94.50;;;;;;4155943;28;20053;-62
2022/05/05 04:01:17;;;;;;;8.18;4.93;;;14.70;94.50;;;;;;4154713;28;20048;-63
2022/05/05 04:03:43;;;;;;;7.38;4.43;;;14.70;94.30;;;;;;4156184;28;20049;-63
2022/05/05 04:05:43;;;;;;;6.55;4.00;;;14.70;94.20;;;;;;4154681;28;20061;-62
2022/05/05 04:07:44;;;;;;;9.02;4.53;;;14.70;94.10;;;;;;4157601;28;20071;-62
2022/05/05 04:09:45;;;;;;;7.32;4.45;;;14.60;94.10;;;;;;4155850;28;20036;-62
2022/05/05 04:11:45;;;;;;;5.70;4.40;;;14.60;94.30;;;;;;4156090;28;20045;-62
2022/05/05 04:13:46;;;;;;;8.20;4.40;;;14.60;94.80;;;;;;4157570;28;20033;-61
2022/05/05 04:15:48;;;;;;;8.82;4.60;;;14.50;95.00;;;;;;4156531;28;20434;-63
2022/05/05 04:17:48;;;;;;;6.70;4.50;;;14.50;94.90;;;;;;4158155;28;20052;-62
2022/05/05 04:19:49;;;;;;;8.63;4.70;;;14.50;95.00;;;;;;4156019;28;20048;-63
2022/05/05 04:21:50;;;;;;;8.18;4.80;;;14.50;95.20;;;;;;4154525;28;20033;-62
2022/05/05 04:23:51;;;;;;;8.85;4.45;;;14.40;95.20;;;;;;4158241;28;20484;-62
2022/05/05 04:25:52;;;;;;;6.13;4.43;;;14.40;95.30;;;;;;4160563;28;20499;-63
2022/05/05 04:27:52;;;;;;;7.38;4.30;;;14.30;95.30;;;;;;4154962;28;20120;-62
2022/05/05 04:29:53;;;;;;;5.05;3.80;;;14.30;95.50;;;;;;4152847;28;20495;-63
2022/05/05 04:31:54;;;;;;;6.93;5.07;;;14.30;95.60;;;;;;4157534;28;20116;-62
2022/05/05 04:33:55;;;;;;;8.88;4.32;;;14.20;95.80;;;;;;4156647;28;20040;-62
2022/05/05 04:35:55;;;;;;;7.68;4.35;;;14.20;95.80;;;;;;4154516;28;20476;-62
2022/05/05 04:37:56;;;;;;;8.45;4.22;;;14.20;95.90;;;;;;4151891;28;20040;-63
2022/05/05 04:39:57;;;;;;;5.30;4.13;;;14.20;96.10;;;;;;4152805;28;20048;-63
2022/05/05 04:41:57;;;;;;;6.15;4.03;;;14.20;95.90;;;;;;4158698;28;20033;-62
2022/05/05 04:43:58;;;;;;;6.35;4.60;;;14.20;95.10;;;;;;4155743;28;20049;-62
2022/05/05 04:45:59;;;;;;;7.70;4.75;;;14.10;95.50;;;;;;4158162;28;20022;-63
2022/05/05 04:47:59;;;;;;;7.28;4.45;;;14.10;95.80;;;;;;4152005;28;20033;-64
2022/05/05 04:50:00;;;;;;;8.95;5.47;;;14.10;95.50;;;;;;4156835;28;20041;-63
2022/05/05 04:52:00;;;;;;;11.13;5.05;;;14.10;95.60;;;;;;4160317;28;20029;-63
2022/05/05 04:54:01;;;;;;;7.15;5.00;;;14.00;95.60;;;;;;4155442;28;20042;-64
2022/05/05 04:56:02;;;;;;;9.93;5.13;;;14.00;95.90;;;;;;4153119;28;20038;-63
2022/05/05 04:58:03;;;;;;;6.03;4.78;;;14.00;96.00;;;;;;4157653;28;20509;-63
2022/05/05 05:00:05;;;;;;;10.93;5.07;;;13.90;95.80;;;;;;4157058;28;20040;-63
2022/05/05 05:02:06;;;;;;;13.88;5.18;;;13.90;96.30;;;;;;4156567;28;20037;-61
2022/05/05 05:04:07;;;;;;;7.82;5.22;;;13.90;96.30;;;;;;4152889;28;20366;-63
2022/05/05 05:06:09;;;;;;;9.30;4.80;;;13.90;96.60;;;;;;4159284;28;20041;-63
2022/05/05 05:08:10;;;;;;;9.30;5.75;;;13.90;96.70;;;;;;4156182;28;20385;-62
2022/05/05 05:10:11;;;;;;;13.23;5.72;;;13.90;96.60;;;;;;4154513;28;20030;-64
2022/05/05 05:12:11;;;;;;;9.90;5.30;;;13.90;96.70;;;;;;4158012;28;20408;-62
2022/05/05 05:14:12;;;;;;;11.80;4.88;;;14.00;97.30;;;;;;4155767;28;20073;-62
2022/05/05 05:16:13;;;;;;;9.10;5.50;;;13.90;97.60;;;;;;4156254;28;20124;-63
2022/05/05 05:18:13;;;;;;;8.75;5.00;;;14.00;97.60;;;;;;4153024;28;20365;-62
2022/05/05 05:20:14;;;;;;;11.77;6.00;;;14.00;97.50;;;;;;4153650;28;20049;-62
2022/05/05 05:22:14;;;;;;;10.20;5.22;;;14.00;97.50;;;;;;4155050;28;20076;-63
2022/05/05 05:24:15;;;;;;;9.07;5.82;;;14.10;98.10;;;;;;4159884;28;20049;-62
2022/05/05 05:26:15;;;;;;;8.27;5.75;;;14.10;98.00;;;;;;4158374;28;20121;-62
2022/05/05 05:28:16;;;;;;;11.85;6.25;;;14.10;97.70;;;;;;4155883;28;20060;-62
2022/05/05 05:30:17;;;;;;;8.40;5.38;;;14.10;97.60;;;;;;4158307;28;20503;-61
2022/05/05 05:32:17;;;;;;;10.70;6.00;;;14.20;98.00;;;;;;4159030;28;20029;-62
2022/05/05 05:34:18;;;;;;;9.68;5.45;;;14.30;97.90;;;;;;4156974;28;20061;-62
2022/05/05 05:36:19;;;;;;;12.40;6.88;;;14.30;97.90;;;;;;4156946;28;20076;-62
2022/05/05 05:38:22;;;;;;;11.05;6.18;;;14.30;97.80;;;;;;4151869;28;20485;-61
2022/05/05 05:40:23;;;;;;;9.65;5.75;;;14.40;97.70;;;;;;4156550;28;20140;-63
2022/05/05 05:42:23;;;;;;;10.40;6.60;;;14.40;97.80;;;;;;4156072;28;20033;-62
2022/05/05 05:44:24;;;;;;;8.30;5.70;;;14.40;97.70;;;;;;4158154;28;20569;-63
2022/05/05 05:46:24;;;;;;;9.20;6.05;;;14.50;97.40;;;;;;4158031;28;20393;-62
2022/05/05 05:48:25;;;;;;;8.73;6.03;;;14.50;97.50;;;;;;4154551;28;20033;-62
2022/05/05 05:50:27;;;;;;;9.30;6.28;;;14.60;98.10;;;;;;4158901;28;20035;-62
2022/05/05 05:52:27;;;;;;;9.50;6.10;;;14.60;98.50;;;;;;4156636;28;20045;-62
2022/05/05 05:54:28;;;;;;;10.25;6.45;;;14.70;98.80;;;;;;4155333;28;20033;-61
2022/05/05 05:56:28;;;;;;;11.80;6.38;;;14.80;98.70;;;;;;4152963;28;20029;-63
2022/05/05 05:58:29;;;;;;;10.38;6.32;;;14.80;98.70;;;;;;4157922;28;20026;-64
2022/05/05 06:00:32;;;;;;;11.02;6.28;;;14.90;98.70;;;;;;4159020;28;20064;-64
2022/05/05 06:04:52;;;;;;;9.52;6.28;;;15.00;98.50;;;;;;4156193;28;20121;-63
2022/05/05 06:06:53;;;;;;;12.43;6.75;;;15.10;98.10;;;;;;4155363;28;20084;-63
2022/05/05 06:08:53;;;;;;;10.73;6.25;;;15.20;98.40;;;;;;4156869;28;20068;-63
2022/05/05 06:10:54;;;;;;;10.90;6.32;;;15.30;98.20;;;;;;4154753;28;20087;-63
2022/05/05 06:12:55;;;;;;;11.18;5.90;;;15.40;98.20;;;;;;4157402;28;20091;-63
2022/05/05 06:14:55;;;;;;;9.52;5.72;;;15.50;98.00;;;;;;4157482;28;20465;-64
2022/05/05 06:16:56;;;;;;;11.55;6.18;;;15.50;96.80;;;;;;4155831;28;20048;-62
2022/05/05 06:18:57;;;;;;;12.68;6.53;;;15.60;97.20;;;;;;4155674;28;20042;-63
2022/05/05 06:20:58;;;;;;;12.40;6.50;;;15.70;96.50;;;;;;4154398;28;20461;-62
2022/05/05 06:22:59;;;;;;;11.57;6.30;;;15.90;96.90;;;;;;4156200;28;20155;-63
2022/05/05 06:24:59;;;;;;;12.52;6.85;;;16.00;97.10;;;;;;4156168;28;20047;-64
2022/05/05 06:27:00;;;;;;;11.65;6.35;;;16.20;96.60;;;;;;4156674;28;20116;-64
2022/05/05 06:29:01;;;;;;;10.13;6.18;;;16.50;96.40;;;;;;4157059;28;20040;-60
2022/05/05 06:31:01;;;;;;;12.02;6.03;;;16.70;96.10;;;;;;4157178;28;20064;-63
2022/05/05 06:33:02;;;;;;;8.82;5.25;;;16.90;95.50;;;;;;4157311;28;20042;-64
2022/05/05 06:35:03;;;;;;;10.30;5.95;;;17.20;95.30;;;;;;4157861;28;20033;-65
2022/05/05 06:37:05;;;;;;;11.52;5.25;;;17.30;94.30;;;;;;4156106;28;20037;-64
2022/05/05 06:39:05;;;;;;;11.98;5.63;;;17.50;94.10;;;;;;4157068;28;20045;-63
2022/05/05 06:41:07;;;;;;;8.30;4.97;;;17.60;93.90;;;;;;4153145;28;20057;-63
2022/05/05 06:43:09;;;;;;;10.32;4.53;;;17.80;93.30;;;;;;4157632;28;20039;-64
2022/05/05 06:45:10;;;;;;;9.27;4.82;;;17.70;89.10;;;;;;4157088;28;20044;-64
2022/05/05 06:47:11;;;;;;;8.95;4.63;;;17.60;88.40;;;;;;4156036;28;20148;-64
2022/05/05 06:49:12;;;;;;;9.70;5.07;;;17.50;89.50;;;;;;4154734;28;20076;-63
2022/05/05 06:51:13;;;;;;;9.10;4.00;;;17.30;88.10;;;;;;4156011;28;20052;-64
2022/05/05 06:53:14;;;;;;;7.93;4.18;;;17.00;87.70;;;;;;4157962;28;20056;-63
2022/05/05 06:55:15;;;;;;;6.05;3.60;;;17.20;89.30;;;;;;4156507;28;20518;-64
2022/05/05 06:57:15;;;;;;;8.15;4.00;;;17.20;88.50;;;;;;4157089;28;20038;-64
2022/05/05 06:59:16;;;;;;;12.23;4.90;;;17.30;90.00;;;;;;4156780;28;20551;-63
2022/05/05 07:03:36;;;;;;;8.32;4.30;;;17.40;90.50;;;;;;4153992;28;20037;-64
2022/05/05 07:05:36;;;;;;;9.50;4.93;;;17.40;90.20;;;;;;4155144;28;20462;-64
2022/05/05 07:07:37;;;;;;;11.82;4.30;;;17.40;91.10;;;;;;4157962;28;20402;-64
2022/05/05 07:11:57;;;;;;;11.82;5.28;;;17.50;91.00;;;;;;4156503;28;20041;-64
2022/05/05 07:14:00;;;;;;;9.38;4.85;;;17.50;90.90;;;;;;4156743;28;20034;-64
2022/05/05 07:16:01;;;;;;;8.95;4.68;;;17.60;90.80;;;;;;4154780;28;20108;-65
2022/05/05 07:18:01;;;;;;;10.07;4.97;;;17.60;90.30;;;;;;4157420;28;20033;-64
2022/05/05 07:20:03;;;;;;;8.05;4.38;;;17.60;90.70;;;;;;4148972;28;20060;-66
2022/05/05 07:22:04;;;;;;;8.85;4.90;;;17.70;90.50;;;;;;4153343;28;20120;-64
2022/05/05 07:24:05;;;;;;;9.40;4.95;;;17.70;89.90;;;;;;4155586;28;20053;-64
2022/05/05 07:26:06;;;;;;;10.60;5.60;;;17.80;90.70;;;;;;4156157;28;20041;-64
2022/05/05 07:28:06;;;;;;;9.80;5.25;;;17.80;90.40;;;;;;4157012;28;20091;-64
2022/05/05 07:30:08;;;;;;;12.32;5.07;;;17.80;88.00;;;;;;4158547;28;20144;-64
2022/05/05 07:32:09;;;;;;;7.78;4.40;;;17.80;86.60;;;;;;4156506;28;20088;-62
2022/05/05 07:34:12;;;;;;;9.38;4.47;;;17.80;87.80;;;;;;4156567;28;20043;-64
2022/05/05 07:36:12;;;;;;;7.65;4.13;;;17.90;90.10;;;;;;4157644;28;20041;-64
2022/05/05 07:38:13;;;;;;;8.52;4.70;;;17.90;90.10;;;;;;4158492;28;20030;-64
2022/05/05 07:40:13;;;;;;;8.15;4.72;;;18.00;90.40;;;;;;4155241;28;20061;-64
2022/05/05 07:42:14;;;;;;;12.20;4.75;;;18.10;90.30;;;;;;4155627;28;20428;-64
2022/05/05 07:44:15;;;;;;;9.95;4.43;;;18.20;90.10;;;;;;4155037;28;20099;-63
2022/05/05 07:46:19;;;;;;;7.70;4.18;;;18.20;89.80;;;;;;4156571;28;20447;-64
2022/05/05 07:48:20;;;;;;;7.75;3.88;;;18.30;86.10;;;;;;4156903;28;20033;-63
2022/05/05 07:50:20;;;;;;;9.68;4.00;;;18.30;85.10;;;;;;4155573;28;20034;-63
2022/05/05 07:52:21;;;;;;;7.40;3.90;;;18.30;82.90;;;;;;4157051;28;20045;-64
2022/05/05 07:56:43;;;;;;;7.75;4.00;;;18.30;86.40;;;;;;4157237;28;20365;-64
2022/05/05 07:58:43;;;;;;;8.20;3.72;;;18.40;86.70;;;;;;4156717;28;20155;-63
2022/05/05 08:00:44;;;;;;;9.77;3.28;;;18.50;84.90;;;;;;4154822;28;20044;-63
2022/05/05 08:02:45;;;;;;;7.75;3.60;;;18.50;82.00;;;;;;4157139;28;20117;-63
2022/05/05 08:04:45;;;;;;;6.75;3.45;;;18.50;84.10;;;;;;4158196;28;20030;-63
2022/05/05 08:06:46;;;;;;;4.97;2.58;;;18.60;84.80;;;;;;4156237;28;20408;-63
2022/05/05 08:08:47;;;;;;;6.40;3.55;;;18.70;85.40;;;;;;4157254;28;20473;-63
2022/05/05 08:10:52;;;;;;;9.02;4.10;;;18.80;84.70;;;;;;4155098;28;20539;-63
2022/05/05 08:12:53;;;;;;;7.93;3.53;;;18.90;84.60;;;;;;4157330;28;20104;-63
2022/05/05 08:14:54;;;;;;;6.68;3.08;;;19.10;84.10;;;;;;4158566;28;20045;-63
2022/05/05 08:16:55;;;;;;;10.75;4.03;;;19.20;81.10;;;;;;4160415;28;20034;-63
2022/05/05 08:18:56;;;;;;;5.90;3.00;;;19.30;81.80;;;;;;4159485;28;20038;-63
2022/05/05 08:20:57;;;;;;;6.50;3.13;;;19.40;78.30;;;;;;4156826;28;20038;-64
2022/05/05 08:22:57;;;;;;;8.00;3.40;;;19.50;80.80;;;;;;4159584;28;20033;-63
2022/05/05 08:29:37;;;;;;;5.43;2.55;;;19.80;77.80;;;;;;4160300;28;20120;-64
2022/05/05 08:31:37;;;;;;;6.50;3.08;;;19.90;73.30;;;;;;4157542;28;20072;-64
2022/05/05 08:33:38;;;;;;;6.55;3.15;;;20.00;73.30;;;;;;4160219;28;20039;-64
2022/05/05 08:35:41;;;;;;;7.18;3.20;;;20.10;76.30;;;;;;4159478;28;20041;-64
2022/05/05 08:37:41;;;;;;;;;;;20.10;75.50;;;;;;4160659;28;20044;-64
2022/05/05 08:39:44;;;;;;;7.25;4.07;;;20.20;75.00;;;;;;4157511;28;19924;-64
2022/05/05 08:41:46;;;;;;;;;;;20.40;75.60;;;;;;4157514;28;20053;-64
2022/05/05 08:43:46;;;;;;;8.98;4.57;;;20.40;75.60;;;;;;4159994;28;19916;-64
2022/05/05 08:45:49;;;;;;;10.85;6.03;;;20.50;75.50;;;;;;4156768;28;20053;-64
2022/05/05 08:47:53;;;;;;;12.75;5.95;;;20.50;73.60;;;;;;4158632;28;20350;-64
2022/05/05 08:49:58;;;;;;;10.60;5.63;;;20.60;74.70;;;;;;4159576;28;20045;-63
2022/05/05 08:52:02;;;;;;;8.00;4.88;;;20.80;75.20;;;;;;4157729;28;20041;-62
2022/05/05 08:54:06;;;;;;;9.02;3.70;;;20.80;74.10;;;;;;4159973;28;20041;-63
2022/05/05 08:56:07;;;;;;;8.52;3.50;;;20.90;74.00;;;;;;4159479;28;20091;-64
2022/05/05 08:58:07;;;;;;;9.48;3.42;;;21.00;72.70;;;;;;4156714;28;20041;-65
2022/05/05 09:00:10;;;;;;;10.15;4.18;;;21.00;72.50;;;;;;4155017;28;20061;-64
2022/05/05 09:02:10;;;;;;;9.38;3.88;;;21.10;70.20;;;;;;4160041;28;20041;-64
2022/05/05 09:04:11;;;;;;;7.63;3.50;;;21.10;72.00;;;;;;4159148;28;20041;-64
2022/05/05 09:06:12;;;;;;;5.82;3.50;;;21.20;70.80;;;;;;4158194;28;20052;-64
2022/05/05 09:08:33;;;;;;;6.35;3.50;;;21.30;73.60;;;;;;4157392;28;20388;-64
2022/05/05 09:10:45;;;;;;;8.23;3.85;;;21.40;74.70;;;;;;4157365;28;20080;-64
2022/05/05 09:13:00;;;;;;;9.68;3.90;;;21.40;72.90;;;;;;4159570;28;20075;-64
2022/05/05 09:15:00;;;;;;;6.95;3.40;;;21.50;70.60;;;;;;4156385;28;20117;-64
2022/05/05 09:17:06;;;;;;;7.32;3.15;;;21.60;70.40;;;;;;4159356;28;20053;-64
2022/05/05 09:19:10;;;;;;;7.65;3.50;;;21.60;71.30;;;;;;4151487;28;20521;-64
2022/05/05 09:21:10;;;;;;;5.97;3.13;;;21.70;69.40;;;;;;4159227;28;20133;-63
2022/05/05 09:23:31;;;;;;;9.27;4.30;;;21.70;69.50;;;;;;4159709;28;20045;-64
2022/05/05 09:25:46;;;;;;;10.38;5.28;;;21.70;71.70;;;;;;4156557;28;20034;-64
2022/05/05 09:27:51;;;;;;;10.10;4.85;;;21.70;71.80;;;;;;4157747;28;20477;-64
2022/05/05 09:30:01;;;;;;;9.18;4.35;;;21.70;72.90;;;;;;4155813;28;20038;-64
2022/05/05 09:32:10;;;;;;;11.30;5.43;;;21.60;73.80;;;;;;4157580;28;20038;-64
2022/05/05 09:34:18;;;;;;;7.57;4.65;;;21.60;72.60;;;;;;4155759;28;20038;-63
2022/05/05 09:36:28;;;;;;;9.95;5.53;;;21.60;70.90;;;;;;4156864;28;20049;-63
2022/05/05 09:38:50;;;;;;;10.85;4.60;;;21.30;67.40;;;;;;4158062;28;20096;-64
2022/05/05 09:41:03;;;;;;;8.95;4.20;;;21.40;70.70;;;;;;4155125;28;20050;-63
2022/05/05 09:43:04;;;;;;;7.70;4.60;;;21.40;68.60;;;;;;4152201;28;20032;-64
2022/05/05 09:45:18;;;;;;;10.48;4.43;;;21.40;69.00;;;;;;4155491;28;20080;-65
2022/05/05 09:47:19;;;;;;;9.23;4.95;;;21.30;68.90;;;;;;4156178;28;20451;-63
2022/05/05 09:49:20;;;;;;;8.20;4.50;;;21.10;68.10;;;;;;4157637;28;20164;-63
2022/05/05 09:51:21;;;;;;;9.00;4.30;;;21.20;71.10;;;;;;4156684;28;20045;-64
2022/05/05 09:58:09;;;;;;;11.60;5.40;;;21.20;69.30;;;;;;4158146;28;21201;-64
2022/05/05 10:04:57;;;;;;;6.53;4.20;;;21.10;75.20;;;;;;4155652;28;20029;-64
2022/05/05 10:07:02;;;;;;;9.73;4.78;;;21.20;73.80;;;;;;4157260;28;20041;-63
2022/05/05 10:09:10;;;;;;;10.65;5.13;;;21.20;72.90;;;;;;4158905;28;20041;-63
2022/05/05 10:11:14;;;;;;;8.93;5.05;;;21.20;73.30;;;;;;4157224;28;20120;-64
2022/05/05 10:13:15;;;;;;;11.07;5.13;;;21.30;74.30;;;;;;4157609;28;20037;-64
2022/05/05 10:15:16;;;;;;;7.07;4.80;;;21.40;71.50;;;;;;4157646;28;20026;-64
2022/05/05 10:17:17;;;;;;;8.45;4.13;;;21.30;70.10;;;;;;4157775;28;20033;-63
2022/05/05 10:19:18;;;;;;;9.70;4.63;;;21.50;71.70;;;;;;4156067;28;20044;-64
2022/05/05 10:21:52;;;;;;;12.95;6.28;;;21.50;73.20;;;;;;4156914;28;20132;-63
2022/05/05 10:24:12;;;;;;;12.07;4.95;;;21.60;73.20;;;;;;4157168;28;20058;-64
2022/05/05 10:26:13;;;;;;;10.05;6.15;;;21.60;73.30;;;;;;4158334;28;20046;-64
2022/05/05 10:28:40;;;;;;;11.10;6.50;;;21.70;72.20;;;;;;4158263;28;20041;-63
2022/05/05 10:30:41;;;;;;;8.98;5.47;;;21.60;72.50;;;;;;4157261;28;20468;-64
2022/05/05 10:32:43;;;;;;;8.90;5.05;;;21.60;69.30;;;;;;4163109;28;20029;-64
2022/05/05 10:34:54;;;;;;;11.90;5.28;;;21.70;71.80;;;;;;4157865;28;20388;-64
2022/05/05 10:37:07;;;;;;;9.40;5.38;;;21.70;70.40;;;;;;4156940;28;21085;-64
2022/05/05 10:39:22;;;;;;;9.23;5.30;;;21.70;69.20;;;;;;4156783;28;20109;-64
2022/05/05 10:41:35;;;;;;;6.97;4.70;;;21.70;70.60;;;;;;4156523;28;20061;-64
2022/05/05 10:43:35;;;;;;;9.23;5.38;;;21.70;68.90;;;;;;4157193;28;20152;-66
2022/05/05 10:45:36;;;;;;;10.10;4.93;;;21.70;69.70;;;;;;4156930;28;20072;-64
2022/05/05 10:47:52;;;;;;;11.90;6.18;;;21.80;72.90;;;;;;4155425;28;20047;-64
2022/05/05 10:49:53;;;;;;;10.30;5.57;;;21.80;72.10;;;;;;4157262;28;20034;-64
2022/05/05 10:52:09;;;;;;;7.68;4.82;;;21.80;73.40;;;;;;4156608;28;20068;-64
2022/05/05 10:54:25;;;;;;;10.77;5.22;;;21.90;67.20;;;;;;4157747;28;20099;-64
2022/05/05 10:56:31;;;;;;;9.07;5.53;;;21.90;72.20;;;;;;4156349;28;20099;-64
2022/05/05 10:59:02;;;;;;;14.38;6.00;;;22.00;72.70;;;;;;4157259;28;20388;-64
2022/05/05 11:01:09;;;;;;;9.68;5.70;;;22.10;72.00;;;;;;4157621;28;20120;-64
2022/05/05 11:03:09;;;;;;;7.38;4.80;;;22.10;69.70;;;;;;4156474;28;20040;-64
2022/05/05 11:05:27;;;;;;;12.65;5.63;;;22.20;68.90;;;;;;4156357;28;20113;-65
2022/05/05 11:07:30;;;;;;;7.93;5.40;;;22.20;68.30;;;;;;4158330;28;20243;-64
2022/05/05 11:09:37;;;;;;;9.02;5.22;;;22.30;71.50;;;;;;4158300;28;20034;-64
2022/05/05 11:11:41;;;;;;;6.95;5.05;;;22.30;69.10;;;;;;4153542;28;20045;-64
2022/05/05 11:13:46;;;;;;;9.25;4.78;;;22.30;71.60;;;;;;4156010;28;20072;-64